sensor_id;sensor_type;location;lat;lon;timestamp;pressure;altitude;pressure_sealevel;temperature;humidity
52735;BME280;38631;47.572;10.704;2023-05-14T00:00:22;92430.94;;;8.67;100.00
52735;BME280;38631;47.572;10.704;2023-05-14T00:02:50;92428.28;;;8.67;100.00
52735;BME280;38631;47.572;10.704;2023-05-14T00:05:23;92427.91;;;8.73;100.00
52735;BME280;38631;47.572;10.704;2023-05-14T00:07:50;92425.66;;;8.80;100.00
52735;BME280;38631;47.572;10.704;2023-05-14T00:10:17;92425.44;;;8.77;100.00
52735;BME280;38631;47.572;10.704;2023-05-14T00:12:46;92422.50;;;8.78;100.00
52735;BME280;38631;47.572;10.704;2023-05-14T00:15:16;92434.16;;;8.91;100.00
52735;BME280;38631;47.572;10.704;2023-05-14T00:17:42;92435.31;;;8.99;100.00
52735;BME280;38631;47.572;10.704;2023-05-14T00:20:09;92409.53;;;8.91;100.00
52735;BME280;38631;47.572;10.704;2023-05-14T00:22:37;92425.50;;;8.99;100.00
52735;BME280;38631;47.572;10.704;2023-05-14T00:25:06;92426.38;;;8.95;100.00
52735;BME280;38631;47.572;10.704;2023-05-14T00:27:34;92413.84;;;8.86;100.00
52735;BME280;38631;47.572;10.704;2023-05-14T00:30:04;92410.91;;;8.88;100.00
52735;BME280;38631;47.572;10.704;2023-05-14T00:32:32;92409.66;;;8.85;100.00
52735;BME280;38631;47.572;10.704;2023-05-14T00:34:58;92431.56;;;9.00;100.00
52735;BME280;38631;47.572;10.704;2023-05-14T00:37:24;92411.88;;;8.92;100.00
52735;BME280;38631;47.572;10.704;2023-05-14T00:39:51;92426.38;;;8.95;100.00
52735;BME280;38631;47.572;10.704;2023-05-14T00:42:21;92428.25;;;8.94;100.00
52735;BME280;38631;47.572;10.704;2023-05-14T00:44:48;92406.69;;;8.87;100.00
52735;BME280;38631;47.572;10.704;2023-05-14T00:47:13;92418.94;;;8.97;100.00
52735;BME280;38631;47.572;10.704;2023-05-14T00:49:42;92416.28;;;8.97;100.00
52735;BME280;38631;47.572;10.704;2023-05-14T00:52:10;92400.72;;;8.81;100.00
52735;BME280;38631;47.572;10.704;2023-05-14T00:54:37;92403.94;;;8.92;100.00
52735;BME280;38631;47.572;10.704;2023-05-14T00:57:07;92405.19;;;8.95;100.00
52735;BME280;38631;47.572;10.704;2023-05-14T00:59:33;92416.50;;;9.00;100.00
52735;BME280;38631;47.572;10.704;2023-05-14T01:02:00;92416.56;;;8.95;100.00
52735;BME280;38631;47.572;10.704;2023-05-14T01:04:40;92407.47;;;8.87;100.00
52735;BME280;38631;47.572;10.704;2023-05-14T01:07:28;92410.91;;;8.88;100.00
52735;BME280;38631;47.572;10.704;2023-05-14T01:10:24;92404.25;;;8.91;100.00
52735;BME280;38631;47.572;10.704;2023-05-14T01:13:05;92397.09;;;8.91;100.00
52735;BME280;38631;47.572;10.704;2023-05-14T01:15:38;92392.41;;;8.74;100.00
52735;BME280;38631;47.572;10.704;2023-05-14T01:18:22;92388.66;;;8.89;100.00
52735;BME280;38631;47.572;10.704;2023-05-14T01:20:50;92396.19;;;8.96;100.00
52735;BME280;38631;47.572;10.704;2023-05-14T01:23:19;92385.81;;;8.85;100.00
52735;BME280;38631;47.572;10.704;2023-05-14T01:25:46;92395.81;;;8.89;100.00
52735;BME280;38631;47.572;10.704;2023-05-14T01:28:27;92386.50;;;8.77;100.00
52735;BME280;38631;47.572;10.704;2023-05-14T01:31:22;92383.28;;;8.80;100.00
52735;BME280;38631;47.572;10.704;2023-05-14T01:34:00;92388.38;;;8.77;100.00
52735;BME280;38631;47.572;10.704;2023-05-14T01:36:30;92398.84;;;8.82;100.00
52735;BME280;38631;47.572;10.704;2023-05-14T01:39:02;92382.78;;;8.78;100.00
52735;BME280;38631;47.572;10.704;2023-05-14T01:41:30;92383.28;;;8.80;100.00
52735;BME280;38631;47.572;10.704;2023-05-14T01:43:58;92380.63;;;8.80;100.00
52735;BME280;38631;47.572;10.704;2023-05-14T01:46:29;92385.72;;;8.91;100.00
52735;BME280;38631;47.572;10.704;2023-05-14T01:48:56;92387.75;;;8.94;100.00
52735;BME280;38631;47.572;10.704;2023-05-14T01:51:22;92376.59;;;8.83;100.00
52735;BME280;38631;47.572;10.704;2023-05-14T01:53:48;92379.72;;;8.85;100.00
52735;BME280;38631;47.572;10.704;2023-05-14T01:56:14;92389.31;;;8.95;100.00
52735;BME280;38631;47.572;10.704;2023-05-14T01:58:40;92385.22;;;8.89;100.00
52735;BME280;38631;47.572;10.704;2023-05-14T02:01:06;92388.88;;;8.79;100.00
52735;BME280;38631;47.572;10.704;2023-05-14T02:03:42;92372.22;;;8.64;100.00
52735;BME280;38631;47.572;10.704;2023-05-14T02:06:09;92373.47;;;8.67;100.00
52735;BME280;38631;47.572;10.704;2023-05-14T02:08:37;92379.16;;;8.74;100.00
52735;BME280;38631;47.572;10.704;2023-05-14T02:11:03;92382.19;;;8.81;100.00
52735;BME280;38631;47.572;10.704;2023-05-14T02:13:29;92370.94;;;8.76;100.00
52735;BME280;38631;47.572;10.704;2023-05-14T02:15:57;92369.25;;;8.80;100.00
52735;BME280;38631;47.572;10.704;2023-05-14T02:18:23;92378.94;;;8.84;100.00
52735;BME280;38631;47.572;10.704;2023-05-14T02:20:49;92373.97;;;8.83;100.00
52735;BME280;38631;47.572;10.704;2023-05-14T02:23:19;92362.69;;;8.77;100.00
52735;BME280;38631;47.572;10.704;2023-05-14T02:25:47;92366.69;;;8.89;100.00
52735;BME280;38631;47.572;10.704;2023-05-14T02:28:12;92374.13;;;8.86;100.00
52735;BME280;38631;47.572;10.704;2023-05-14T02:31:00;92363.16;;;8.93;100.00
52735;BME280;38631;47.572;10.704;2023-05-14T02:33:30;92354.81;;;8.86;100.00
52735;BME280;38631;47.572;10.704;2023-05-14T02:35:57;92354.03;;;8.85;100.00
52735;BME280;38631;47.572;10.704;2023-05-14T02:38:28;92355.44;;;8.83;100.00
52735;BME280;38631;47.572;10.704;2023-05-14T02:40:54;92353.66;;;8.78;100.00
52735;BME280;38631;47.572;10.704;2023-05-14T02:43:20;92358.38;;;8.81;100.00
52735;BME280;38631;47.572;10.704;2023-05-14T02:45:48;92339.06;;;8.67;100.00
52735;BME280;38631;47.572;10.704;2023-05-14T02:48:14;92360.91;;;8.73;100.00
52735;BME280;38631;47.572;10.704;2023-05-14T02:50:40;92341.44;;;8.69;100.00
52735;BME280;38631;47.572;10.704;2023-05-14T02:53:09;92335.03;;;8.70;100.00
52735;BME280;38631;47.572;10.704;2023-05-14T02:55:52;92349.63;;;8.81;100.00
52735;BME280;38631;47.572;10.704;2023-05-14T02:58:22;92344.53;;;8.84;100.00
52735;BME280;38631;47.572;10.704;2023-05-14T03:00:50;92330.44;;;8.75;100.00
52735;BME280;38631;47.572;10.704;2023-05-14T03:03:20;92325.44;;;8.74;100.00
52735;BME280;38631;47.572;10.704;2023-05-14T03:05:46;92332.00;;;8.76;100.00
52735;BME280;38631;47.572;10.704;2023-05-14T03:08:16;92343.13;;;8.87;100.00
52735;BME280;38631;47.572;10.704;2023-05-14T03:10:47;92344.53;;;8.84;100.00
52735;BME280;38631;47.572;10.704;2023-05-14T03:13:15;92333.94;;;8.84;100.00
52735;BME280;38631;47.572;10.704;2023-05-14T03:15:43;92325.81;;;8.81;100.00
52735;BME280;38631;47.572;10.704;2023-05-14T03:18:11;92327.84;;;8.84;100.00
52735;BME280;38631;47.572;10.704;2023-05-14T03:20:40;92324.22;;;8.80;100.00
52735;BME280;38631;47.572;10.704;2023-05-14T03:23:07;92331.72;;;8.78;100.00
52735;BME280;38631;47.572;10.704;2023-05-14T03:25:47;92340.91;;;8.80;100.00
52735;BME280;38631;47.572;10.704;2023-05-14T03:28:13;92331.72;;;8.78;100.00
52735;BME280;38631;47.572;10.704;2023-05-14T03:31:00;92321.81;;;8.70;100.00
52735;BME280;38631;47.572;10.704;2023-05-14T03:33:25;92326.94;;;8.66;100.00
52735;BME280;38631;47.572;10.704;2023-05-14T03:35:51;92333.56;;;8.77;100.00
52735;BME280;38631;47.572;10.704;2023-05-14T03:38:18;92343.06;;;8.78;100.00
52735;BME280;38631;47.572;10.704;2023-05-14T03:40:44;92333.56;;;8.77;100.00
52735;BME280;38631;47.572;10.704;2023-05-14T03:43:10;92345.91;;;8.82;100.00
52735;BME280;38631;47.572;10.704;2023-05-14T03:45:47;92340.56;;;8.59;100.00
52735;BME280;38631;47.572;10.704;2023-05-14T03:48:21;92334.69;;;8.49;100.00
52735;BME280;38631;47.572;10.704;2023-05-14T03:50:47;92345.78;;;8.51;100.00
52735;BME280;38631;47.572;10.704;2023-05-14T03:53:16;92340.88;;;8.58;100.00
52735;BME280;38631;47.572;10.704;2023-05-14T03:55:42;92340.81;;;8.72;100.00
52735;BME280;38631;47.572;10.704;2023-05-14T03:58:08;92338.84;;;8.77;100.00
52735;BME280;38631;47.572;10.704;2023-05-14T04:00:41;92341.22;;;8.65;100.00
52735;BME280;38631;47.572;10.704;2023-05-14T04:03:07;92338.22;;;8.58;100.00
52735;BME280;38631;47.572;10.704;2023-05-14T04:05:32;92340.06;;;8.71;100.00
52735;BME280;38631;47.572;10.704;2023-05-14T04:07:58;92325.63;;;8.77;100.00
52735;BME280;38631;47.572;10.704;2023-05-14T04:10:23;92341.75;;;8.90;100.00
52735;BME280;38631;47.572;10.704;2023-05-14T04:12:49;92334.78;;;8.94;100.00
52735;BME280;38631;47.572;10.704;2023-05-14T04:15:14;92336.94;;;8.92;100.00
52735;BME280;38631;47.572;10.704;2023-05-14T04:17:40;92330.63;;;8.79;100.00
52735;BME280;38631;47.572;10.704;2023-05-14T04:20:05;92342.66;;;8.85;100.00
52735;BME280;38631;47.572;10.704;2023-05-14T04:22:31;92336.09;;;8.82;100.00
52735;BME280;38631;47.572;10.704;2023-05-14T04:24:56;92337.34;;;8.85;100.00
52735;BME280;38631;47.572;10.704;2023-05-14T04:27:22;92333.03;;;8.89;100.00
52735;BME280;38631;47.572;10.704;2023-05-14T04:29:50;92331.06;;;8.95;100.00
52735;BME280;38631;47.572;10.704;2023-05-14T04:32:16;92332.63;;;8.96;100.00
52735;BME280;38631;47.572;10.704;2023-05-14T04:34:42;92330.09;;;8.91;100.00
52735;BME280;38631;47.572;10.704;2023-05-14T04:37:07;92326.44;;;9.00;100.00
52735;BME280;38631;47.572;10.704;2023-05-14T04:39:33;92327.72;;;9.03;100.00
52735;BME280;38631;47.572;10.704;2023-05-14T04:41:58;92323.22;;;8.90;100.00
52735;BME280;38631;47.572;10.704;2023-05-14T04:44:24;92337.06;;;8.86;100.00
52735;BME280;38631;47.572;10.704;2023-05-14T04:46:50;92330.06;;;8.68;100.00
52735;BME280;38631;47.572;10.704;2023-05-14T04:49:15;92329.38;;;8.62;100.00
52735;BME280;38631;47.572;10.704;2023-05-14T04:51:41;92313.97;;;8.78;100.00
52735;BME280;38631;47.572;10.704;2023-05-14T04:54:06;92326.47;;;8.86;100.00
52735;BME280;38631;47.572;10.704;2023-05-14T04:56:31;92322.75;;;8.87;100.00
52735;BME280;38631;47.572;10.704;2023-05-14T04:58:57;92331.56;;;8.60;100.00
52735;BME280;38631;47.572;10.704;2023-05-14T05:01:22;92329.69;;;8.61;100.00
52735;BME280;38631;47.572;10.704;2023-05-14T05:03:48;92334.03;;;8.79;100.00
52735;BME280;38631;47.572;10.704;2023-05-14T05:06:13;92329.63;;;8.89;100.00
52735;BME280;38631;47.572;10.704;2023-05-14T05:08:38;92339.13;;;8.90;100.00
52735;BME280;38631;47.572;10.704;2023-05-14T05:11:05;92335.34;;;8.68;100.00
52735;BME280;38631;47.572;10.704;2023-05-14T05:13:30;92335.03;;;8.70;100.00
52735;BME280;38631;47.572;10.704;2023-05-14T05:16:02;92330.34;;;8.80;100.00
52735;BME280;38631;47.572;10.704;2023-05-14T05:18:28;92331.66;;;8.92;100.00
52735;BME280;38631;47.572;10.704;2023-05-14T05:21:06;92323.81;;;8.86;100.00
52735;BME280;38631;47.572;10.704;2023-05-14T05:23:32;92331.38;;;8.93;100.00
52735;BME280;38631;47.572;10.704;2023-05-14T05:26:07;92337.94;;;8.96;100.00
52735;BME280;38631;47.572;10.704;2023-05-14T05:28:33;92322.56;;;8.84;100.00
52735;BME280;38631;47.572;10.704;2023-05-14T05:30:59;92334.97;;;8.97;100.00
52735;BME280;38631;47.572;10.704;2023-05-14T05:33:27;92332.81;;;8.99;100.00
52735;BME280;38631;47.572;10.704;2023-05-14T05:35:54;92324.56;;;9.01;100.00
52735;BME280;38631;47.572;10.704;2023-05-14T05:38:24;92316.31;;;9.02;100.00
52735;BME280;38631;47.572;10.704;2023-05-14T05:40:50;92331.19;;;9.12;100.00
52735;BME280;38631;47.572;10.704;2023-05-14T05:43:20;92312.59;;;9.03;100.00
52735;BME280;38631;47.572;10.704;2023-05-14T05:45:46;92323.31;;;8.98;100.00
52735;BME280;38631;47.572;10.704;2023-05-14T05:48:37;92328.66;;;9.07;100.00
52735;BME280;38631;47.572;10.704;2023-05-14T05:51:02;92334.28;;;9.05;100.00
52735;BME280;38631;47.572;10.704;2023-05-14T05:53:28;92320.94;;;8.97;100.00
52735;BME280;38631;47.572;10.704;2023-05-14T05:55:54;92338.88;;;9.00;100.00
52735;BME280;38631;47.572;10.704;2023-05-14T05:58:23;92314.28;;;8.99;100.00
52735;BME280;38631;47.572;10.704;2023-05-14T06:00:49;92319.13;;;8.83;100.00
52735;BME280;38631;47.572;10.704;2023-05-14T06:03:17;92325.22;;;8.84;100.00
52735;BME280;38631;47.572;10.704;2023-05-14T06:05:50;92335.63;;;8.80;100.00
52735;BME280;38631;47.572;10.704;2023-05-14T06:08:17;92323.94;;;8.81;100.00
52735;BME280;38631;47.572;10.704;2023-05-14T06:10:44;92328.72;;;8.93;100.00
52735;BME280;38631;47.572;10.704;2023-05-14T06:13:10;92325.22;;;8.84;100.00
52735;BME280;38631;47.572;10.704;2023-05-14T06:15:36;92340.88;;;8.94;100.00
52735;BME280;38631;47.572;10.704;2023-05-14T06:18:01;92337.56;;;8.89;100.00
52735;BME280;38631;47.572;10.704;2023-05-14T06:20:26;92337.13;;;8.95;100.00
52735;BME280;38631;47.572;10.704;2023-05-14T06:23:02;92339.78;;;8.95;100.00
52735;BME280;38631;47.572;10.704;2023-05-14T06:25:27;92339.38;;;9.02;100.00
52735;BME280;38631;47.572;10.704;2023-05-14T06:27:53;92334.56;;;9.04;100.00
52735;BME280;38631;47.572;10.704;2023-05-14T06:30:18;92329.44;;;9.07;100.00
52735;BME280;38631;47.572;10.704;2023-05-14T06:32:49;92346.13;;;9.08;100.00
52735;BME280;38631;47.572;10.704;2023-05-14T06:35:16;92338.13;;;9.22;100.00
52735;BME280;38631;47.572;10.704;2023-05-14T06:37:41;92338.41;;;9.20;100.00
52735;BME280;38631;47.572;10.704;2023-05-14T06:40:21;92337.09;;;9.09;100.00
52735;BME280;38631;47.572;10.704;2023-05-14T06:42:53;92334.31;;;9.14;100.00
52735;BME280;38631;47.572;10.704;2023-05-14T06:45:18;92340.84;;;9.08;100.00
52735;BME280;38631;47.572;10.704;2023-05-14T06:47:50;92327.75;;;9.12;100.00
52735;BME280;38631;47.572;10.704;2023-05-14T06:50:18;92340.47;;;9.23;100.00
52735;BME280;38631;47.572;10.704;2023-05-14T06:52:50;92329.53;;;9.16;100.00
52735;BME280;38631;47.572;10.704;2023-05-14T06:55:16;92336.25;;;9.22;100.00
52735;BME280;38631;47.572;10.704;2023-05-14T06:57:42;92328.19;;;9.27;100.00
52735;BME280;38631;47.572;10.704;2023-05-14T07:00:30;92332.66;;;9.18;100.00
52735;BME280;38631;47.572;10.704;2023-05-14T07:02:58;92333.22;;;9.15;100.00
52735;BME280;38631;47.572;10.704;2023-05-14T07:05:38;92327.13;;;9.28;100.00
52735;BME280;38631;47.572;10.704;2023-05-14T07:08:14;92325.16;;;9.20;100.00
52735;BME280;38631;47.572;10.704;2023-05-14T07:10:51;92317.41;;;9.24;100.00
52735;BME280;38631;47.572;10.704;2023-05-14T07:13:17;92319.97;;;9.38;100.00
52735;BME280;38631;47.572;10.704;2023-05-14T07:15:42;92314.63;;;9.29;100.00
52735;BME280;38631;47.572;10.704;2023-05-14T07:18:08;92315.25;;;9.48;100.00
52735;BME280;38631;47.572;10.704;2023-05-14T07:20:34;92312.47;;;9.54;100.00
52735;BME280;38631;47.572;10.704;2023-05-14T07:22:59;92304.13;;;9.69;100.00
52735;BME280;38631;47.572;10.704;2023-05-14T07:25:26;92305.63;;;9.61;100.00
52735;BME280;38631;47.572;10.704;2023-05-14T07:27:58;92307.19;;;9.62;100.00
52735;BME280;38631;47.572;10.704;2023-05-14T07:30:37;92298.44;;;9.53;100.00
52735;BME280;38631;47.572;10.704;2023-05-14T07:33:02;92307.97;;;9.63;100.00
52735;BME280;38631;47.572;10.704;2023-05-14T07:35:35;92305.19;;;9.68;100.00
52735;BME280;38631;47.572;10.704;2023-05-14T07:38:02;92304.91;;;9.69;100.00
52735;BME280;38631;47.572;10.704;2023-05-14T07:40:29;92311.16;;;9.73;100.00
52735;BME280;38631;47.572;10.704;2023-05-14T07:42:55;92300.06;;;9.71;100.00
52735;BME280;38631;47.572;10.704;2023-05-14T07:45:36;92306.16;;;9.72;100.00
52735;BME280;38631;47.572;10.704;2023-05-14T07:48:17;92302.25;;;9.69;100.00
52735;BME280;38631;47.572;10.704;2023-05-14T07:50:42;92297.09;;;9.73;100.00
52735;BME280;38631;47.572;10.704;2023-05-14T07:53:08;92291.34;;;9.71;100.00
52735;BME280;38631;47.572;10.704;2023-05-14T07:55:33;92296.88;;;9.83;100.00
52735;BME280;38631;47.572;10.704;2023-05-14T07:57:58;92293.63;;;9.95;100.00
52735;BME280;38631;47.572;10.704;2023-05-14T08:00:24;92291.31;;;10.02;100.00
52735;BME280;38631;47.572;10.704;2023-05-14T08:02:49;92292.81;;;9.86;100.00
52735;BME280;38631;47.572;10.704;2023-05-14T08:05:22;92298.00;;;10.00;100.00
52735;BME280;38631;47.572;10.704;2023-05-14T08:07:53;92294.53;;;9.90;100.00
52735;BME280;38631;47.572;10.704;2023-05-14T08:10:20;92287.03;;;9.84;100.00
52735;BME280;38631;47.572;10.704;2023-05-14T08:12:45;92286.63;;;9.68;100.00
52735;BME280;38631;47.572;10.704;2023-05-14T08:15:11;92286.50;;;9.73;100.00
52735;BME280;38631;47.572;10.704;2023-05-14T08:18:00;92293.09;;;9.84;100.00
52735;BME280;38631;47.572;10.704;2023-05-14T08:20:38;92291.34;;;10.11;100.00
52735;BME280;38631;47.572;10.704;2023-05-14T08:23:04;92280.06;;;10.05;100.00
52735;BME280;38631;47.572;10.704;2023-05-14T08:25:31;92284.72;;;10.31;100.00
52735;BME280;38631;47.572;10.704;2023-05-14T08:27:57;92284.16;;;10.11;100.00
52735;BME280;38631;47.572;10.704;2023-05-14T08:30:28;92283.63;;;10.32;100.00
52735;BME280;38631;47.572;10.704;2023-05-14T08:32:59;92282.72;;;10.54;100.00
52735;BME280;38631;47.572;10.704;2023-05-14T08:35:24;92280.88;;;10.72;100.00
52735;BME280;38631;47.572;10.704;2023-05-14T08:37:50;92268.06;;;11.00;100.00
52735;BME280;38631;47.572;10.704;2023-05-14T08:40:19;92271.00;;;11.16;100.00
52735;BME280;38631;47.572;10.704;2023-05-14T08:42:46;92265.22;;;11.31;100.00
52735;BME280;38631;47.572;10.704;2023-05-14T08:45:18;92263.06;;;11.07;100.00
52735;BME280;38631;47.572;10.704;2023-05-14T08:47:49;92266.00;;;10.88;100.00
52735;BME280;38631;47.572;10.704;2023-05-14T08:50:20;92272.28;;;11.10;100.00
52735;BME280;38631;47.572;10.704;2023-05-14T08:53:03;92269.47;;;10.80;100.00
52735;BME280;38631;47.572;10.704;2023-05-14T08:55:45;92264.91;;;10.54;100.00
52735;BME280;38631;47.572;10.704;2023-05-14T08:58:34;92276.88;;;10.26;100.00
52735;BME280;38631;47.572;10.704;2023-05-14T09:01:01;92263.22;;;10.10;100.00
52735;BME280;38631;47.572;10.704;2023-05-14T09:03:39;92265.25;;;10.13;100.00
52735;BME280;38631;47.572;10.704;2023-05-14T09:06:07;92257.59;;;10.03;100.00
52735;BME280;38631;47.572;10.704;2023-05-14T09:08:40;92262.03;;;10.16;100.00
52735;BME280;38631;47.572;10.704;2023-05-14T09:11:07;92260.75;;;10.13;100.00
52735;BME280;38631;47.572;10.704;2023-05-14T09:13:37;92261.75;;;10.35;100.00
52735;BME280;38631;47.572;10.704;2023-05-14T09:16:21;92263.78;;;10.29;100.00
52735;BME280;38631;47.572;10.704;2023-05-14T09:18:46;92264.81;;;10.11;100.00
52735;BME280;38631;47.572;10.704;2023-05-14T09:21:23;92252.75;;;10.05;100.00
52735;BME280;38631;47.572;10.704;2023-05-14T09:23:52;92255.75;;;10.12;100.00
52735;BME280;38631;47.572;10.704;2023-05-14T09:26:22;92256.38;;;10.09;100.00
52735;BME280;38631;47.572;10.704;2023-05-14T09:29:01;92259.66;;;10.14;100.00
52735;BME280;38631;47.572;10.704;2023-05-14T09:31:38;92251.91;;;10.35;100.00
52735;BME280;38631;47.572;10.704;2023-05-14T09:34:19;92254.44;;;10.49;100.00
52735;BME280;38631;47.572;10.704;2023-05-14T09:36:47;92262.72;;;10.48;100.00
52735;BME280;38631;47.572;10.704;2023-05-14T09:39:19;92244.06;;;10.22;100.00
52735;BME280;38631;47.572;10.704;2023-05-14T09:41:55;92251.06;;;10.09;100.00
52735;BME280;38631;47.572;10.704;2023-05-14T09:44:29;92265.09;;;10.01;100.00
52735;BME280;38631;47.572;10.704;2023-05-14T09:47:04;92253.88;;;10.04;100.00
52735;BME280;38631;47.572;10.704;2023-05-14T09:50:05;92256.34;;;10.00;100.00
52735;BME280;38631;47.572;10.704;2023-05-14T09:52:42;92257.25;;;9.95;100.00
52735;BME280;38631;47.572;10.704;2023-05-14T09:55:10;92251.47;;;9.85;100.00
52735;BME280;38631;47.572;10.704;2023-05-14T09:57:40;92258.16;;;9.82;100.00
52735;BME280;38631;47.572;10.704;2023-05-14T10:00:23;92250.53;;;9.81;100.00
52735;BME280;38631;47.572;10.704;2023-05-14T10:02:53;92243.44;;;9.67;100.00
52735;BME280;38631;47.572;10.704;2023-05-14T10:05:24;92262.13;;;9.62;100.00
52735;BME280;38631;47.572;10.704;2023-05-14T10:07:53;92258.97;;;9.51;100.00
52735;BME280;38631;47.572;10.704;2023-05-14T10:10:27;92264.81;;;9.40;100.00
52735;BME280;38631;47.572;10.704;2023-05-14T10:13:03;92269.84;;;9.50;100.00
52735;BME280;38631;47.572;10.704;2023-05-14T10:18:49;92258.72;;;9.30;100.00
52735;BME280;38631;47.572;10.704;2023-05-14T10:21:28;92264.91;;;9.26;100.00
52735;BME280;38631;47.572;10.704;2023-05-14T10:24:04;92254.97;;;9.32;100.00
52735;BME280;38631;47.572;10.704;2023-05-14T10:26:50;92261.91;;;9.50;100.00
52735;BME280;38631;47.572;10.704;2023-05-14T10:32:23;92263.19;;;9.30;100.00
52735;BME280;38631;47.572;10.704;2023-05-14T10:34:50;92264.94;;;9.35;100.00
52735;BME280;38631;47.572;10.704;2023-05-14T10:37:18;92270.34;;;9.52;100.00
52735;BME280;38631;47.572;10.704;2023-05-14T10:43:33;92271.56;;;9.77;100.00
52735;BME280;38631;47.572;10.704;2023-05-14T10:46:16;92272.16;;;9.74;100.00
52735;BME280;38631;47.572;10.704;2023-05-14T10:48:57;92267.91;;;9.64;100.00
52735;BME280;38631;47.572;10.704;2023-05-14T10:51:22;92260.94;;;9.77;100.00
52735;BME280;38631;47.572;10.704;2023-05-14T10:53:47;92260.03;;;9.82;100.00
52735;BME280;38631;47.572;10.704;2023-05-14T10:56:13;92267.50;;;9.80;100.00
52735;BME280;38631;47.572;10.704;2023-05-14T10:58:41;92263.44;;;9.73;100.00
52735;BME280;38631;47.572;10.704;2023-05-14T11:01:18;92253.25;;;9.58;100.00
52735;BME280;38631;47.572;10.704;2023-05-14T11:04:00;92260.91;;;9.68;100.00
52735;BME280;38631;47.572;10.704;2023-05-14T11:09:20;92259.88;;;9.87;100.00
52735;BME280;38631;47.572;10.704;2023-05-14T11:11:46;92253.59;;;9.74;100.00
52735;BME280;38631;47.572;10.704;2023-05-14T11:14:12;92249.84;;;9.66;100.00
52735;BME280;38631;47.572;10.704;2023-05-14T11:16:39;92250.84;;;9.88;100.00
52735;BME280;38631;47.572;10.704;2023-05-14T11:19:05;92241.56;;;9.68;100.00
52735;BME280;38631;47.572;10.704;2023-05-14T11:21:31;92247.41;;;9.87;100.00
52735;BME280;38631;47.572;10.704;2023-05-14T11:23:59;92246.47;;;9.83;100.00
52735;BME280;38631;47.572;10.704;2023-05-14T11:26:25;92240.91;;;10.02;100.00
52735;BME280;38631;47.572;10.704;2023-05-14T11:28:51;92236.72;;;9.70;100.00
52735;BME280;38631;47.572;10.704;2023-05-14T11:31:20;92238.69;;;9.95;100.00
52735;BME280;38631;47.572;10.704;2023-05-14T11:33:47;92231.34;;;9.84;100.00
52735;BME280;38631;47.572;10.704;2023-05-14T11:36:12;92222.47;;;9.97;100.00
52735;BME280;38631;47.572;10.704;2023-05-14T11:38:46;92227.28;;;9.86;100.00
52735;BME280;38631;47.572;10.704;2023-05-14T11:41:13;92216.88;;;9.99;100.00
52735;BME280;38631;47.572;10.704;2023-05-14T11:43:39;92229.66;;;9.97;100.00
52735;BME280;38631;47.572;10.704;2023-05-14T11:46:05;92217.94;;;9.98;100.00
52735;BME280;38631;47.572;10.704;2023-05-14T11:48:33;92222.13;;;9.90;100.00
52735;BME280;38631;47.572;10.704;2023-05-14T11:51:00;92215.78;;;10.00;100.00
52735;BME280;38631;47.572;10.704;2023-05-14T11:53:28;92215.16;;;10.03;100.00
52735;BME280;38631;47.572;10.704;2023-05-14T11:55:54;92222.97;;;10.08;100.00
52735;BME280;38631;47.572;10.704;2023-05-14T11:58:21;92213.94;;;10.09;100.00
52735;BME280;38631;47.572;10.704;2023-05-14T12:00:51;92215.66;;;10.13;100.00
52735;BME280;38631;47.572;10.704;2023-05-14T12:03:18;92215.97;;;10.12;100.00
52735;BME280;38631;47.572;10.704;2023-05-14T12:05:58;92209.53;;;10.04;100.00
52735;BME280;38631;47.572;10.704;2023-05-14T12:08:30;92209.34;;;9.92;100.00
52735;BME280;38631;47.572;10.704;2023-05-14T12:10:57;92211.72;;;9.93;100.00
52735;BME280;38631;47.572;10.704;2023-05-14T12:13:30;92214.19;;;9.90;100.00
52735;BME280;38631;47.572;10.704;2023-05-14T12:16:00;92218.03;;;9.75;100.00
52735;BME280;38631;47.572;10.704;2023-05-14T12:18:29;92222.63;;;9.43;100.00
52735;BME280;38631;47.572;10.704;2023-05-14T12:20:55;92221.16;;;9.37;100.00
52735;BME280;38631;47.572;10.704;2023-05-14T12:23:24;92217.66;;;9.19;100.00
52735;BME280;38631;47.572;10.704;2023-05-14T12:25:50;92212.63;;;9.18;100.00
52735;BME280;38631;47.572;10.704;2023-05-14T12:28:17;92202.13;;;9.04;100.00
52735;BME280;38631;47.572;10.704;2023-05-14T12:30:43;92208.56;;;9.12;100.00
52735;BME280;38631;47.572;10.704;2023-05-14T12:33:09;92215.91;;;9.15;100.00
52735;BME280;38631;47.572;10.704;2023-05-14T12:35:34;92214.66;;;9.12;100.00
52735;BME280;38631;47.572;10.704;2023-05-14T12:38:03;92208.50;;;9.25;100.00
52735;BME280;38631;47.572;10.704;2023-05-14T12:40:28;92209.44;;;9.29;100.00
52735;BME280;38631;47.572;10.704;2023-05-14T12:42:54;92202.31;;;9.07;100.00
52735;BME280;38631;47.572;10.704;2023-05-14T12:45:20;92202.38;;;9.16;100.00
52735;BME280;38631;47.572;10.704;2023-05-14T12:47:45;92198.63;;;9.17;100.00
52735;BME280;38631;47.572;10.704;2023-05-14T12:50:10;92196.59;;;9.14;100.00
52735;BME280;38631;47.572;10.704;2023-05-14T12:52:36;92193.91;;;9.05;100.00
52735;BME280;38631;47.572;10.704;2023-05-14T12:55:02;92198.00;;;9.20;100.00
52735;BME280;38631;47.572;10.704;2023-05-14T12:57:28;92189.75;;;9.22;100.00
52735;BME280;38631;47.572;10.704;2023-05-14T12:59:55;92191.84;;;9.34;100.00
52735;BME280;38631;47.572;10.704;2023-05-14T13:02:20;92192.06;;;9.15;100.00
52735;BME280;38631;47.572;10.704;2023-05-14T13:04:46;92190.03;;;9.12;100.00
52735;BME280;38631;47.572;10.704;2023-05-14T13:07:11;92196.44;;;9.19;100.00
52735;BME280;38631;47.572;10.704;2023-05-14T13:09:37;92191.38;;;9.32;100.00
52735;BME280;38631;47.572;10.704;2023-05-14T13:12:03;92190.28;;;9.33;100.00